createdAt,value
2023-05-06T00:02:04.337Z,98514.63
2023-05-06T00:04:31.198Z,98515.59
2023-05-06T00:06:58.021Z,98508.25
2023-05-06T00:09:24.767Z,98507.84
2023-05-06T00:11:51.568Z,98504.38
2023-05-06T00:14:18.271Z,98507.97
2023-05-06T00:16:45.157Z,98513.91
2023-05-06T00:19:12.492Z,98512.66
2023-05-06T00:21:39.303Z,98505.53
2023-05-06T00:24:06.205Z,98511.78
2023-05-06T00:26:32.893Z,98516.38
2023-05-06T00:28:59.538Z,98512.31
2023-05-06T00:31:26.187Z,98501.88
2023-05-06T00:33:52.888Z,98507.34
2023-05-06T00:36:19.619Z,98508.41
2023-05-06T00:38:46.258Z,98513.69
2023-05-06T00:41:12.898Z,98506.75
2023-05-06T00:43:39.576Z,98505.72
2023-05-06T00:46:09.399Z,98493.38
2023-05-06T00:48:36.308Z,98494.47
2023-05-06T00:51:03.103Z,98496.94
2023-05-06T00:53:30.335Z,98501.53
2023-05-06T00:55:57.571Z,98502.63
2023-05-06T00:58:24.152Z,98503.03
2023-05-06T01:00:52.134Z,98497.06
2023-05-06T01:03:19.282Z,98498.91
2023-05-06T01:06:17.727Z,98491.00
2023-05-06T01:08:58.669Z,98493.78
2023-05-06T01:11:43.820Z,98487.03
2023-05-06T01:14:28.368Z,98487.91
2023-05-06T01:16:58.199Z,98488.56
2023-05-06T01:19:46.528Z,98494.28
2023-05-06T01:22:15.576Z,98488.47
2023-05-06T01:24:44.488Z,98495.50
2023-05-06T01:27:13.276Z,98500.03
2023-05-06T01:29:43.060Z,98493.72
2023-05-06T01:32:15.845Z,98498.69
2023-05-06T01:34:49.946Z,98488.81
2023-05-06T01:37:28.905Z,98483.97
2023-05-06T01:39:59.922Z,98488.53
2023-05-06T01:42:27.587Z,98482.00
2023-05-06T01:44:56.819Z,98483.56
2023-05-06T01:47:24.288Z,98480.78
2023-05-06T01:49:51.209Z,98489.63
2023-05-06T01:52:18.163Z,98474.44
2023-05-06T01:54:44.806Z,98480.81
2023-05-06T01:57:11.463Z,98475.59
2023-05-06T01:59:38.122Z,98477.53
2023-05-06T02:02:04.863Z,98475.75
2023-05-06T02:04:32.410Z,98480.03
2023-05-06T02:06:59.253Z,98484.97
2023-05-06T02:09:26.073Z,98487.81
2023-05-06T02:11:57.714Z,98484.22
2023-05-06T02:14:24.924Z,98482.56
2023-05-06T02:16:52.254Z,98483.63
2023-05-06T02:19:20.633Z,98479.66
2023-05-06T02:21:47.498Z,98475.44
2023-05-06T02:24:14.171Z,98480.81
2023-05-06T02:26:40.842Z,98476.25
2023-05-06T02:29:07.508Z,98473.13
2023-05-06T02:31:34.648Z,98470.66
2023-05-06T02:34:01.318Z,98483.91
2023-05-06T02:36:28.914Z,98477.88
2023-05-06T02:38:55.952Z,98473.44
2023-05-06T02:41:22.625Z,98471.72
2023-05-06T02:43:49.816Z,98461.16
2023-05-06T02:46:16.556Z,98458.38
2023-05-06T02:48:43.264Z,98464.81
2023-05-06T02:51:10.029Z,98469.41
2023-05-06T02:53:36.717Z,98470.22
2023-05-06T02:56:03.517Z,98477.38
2023-05-06T02:58:30.274Z,98471.06
2023-05-06T03:00:57.002Z,98476.22
2023-05-06T03:03:23.746Z,98468.53
2023-05-06T03:05:50.424Z,98468.28
2023-05-06T03:08:17.057Z,98468.97
2023-05-06T03:10:43.703Z,98461.16
2023-05-06T03:13:10.446Z,98466.63
2023-05-06T03:15:37.373Z,98466.59
2023-05-06T03:18:04.157Z,98463.75
2023-05-06T03:20:30.836Z,98463.72
2023-05-06T03:22:59.631Z,98462.97
2023-05-06T03:25:26.406Z,98465.56
2023-05-06T03:27:53.674Z,98468.66
2023-05-06T03:30:22.529Z,98458.75
2023-05-06T03:32:51.705Z,98460.81
2023-05-06T03:35:25.670Z,98467.91
2023-05-06T03:37:56.230Z,98462.66
2023-05-06T03:40:25.556Z,98466.28
2023-05-06T03:42:52.877Z,98465.44
2023-05-06T03:45:21.299Z,98467.84
2023-05-06T03:47:48.649Z,98467.22
2023-05-06T03:50:16.592Z,98463.94
2023-05-06T03:52:43.556Z,98466.50
2023-05-06T03:55:10.451Z,98474.41
2023-05-06T03:57:38.873Z,98474.06
2023-05-06T04:00:07.000Z,98476.56
2023-05-06T04:02:43.473Z,98480.53
2023-05-06T04:05:16.221Z,98480.50
2023-05-06T04:07:44.254Z,98482.03
2023-05-06T04:10:11.340Z,98480.88
2023-05-06T04:12:39.092Z,98481.78
2023-05-06T04:15:07.782Z,98482.75
2023-05-06T04:17:34.950Z,98483.91
2023-05-06T04:20:11.456Z,98483.53
2023-05-06T04:22:39.171Z,98484.53
2023-05-06T04:25:07.095Z,98484.63
2023-05-06T04:27:35.461Z,98482.28
2023-05-06T04:30:04.548Z,98485.38
2023-05-06T04:32:34.007Z,98487.66
2023-05-06T04:35:01.619Z,98488.28
2023-05-06T04:37:28.433Z,98503.91
2023-05-06T04:40:06.196Z,98491.06
2023-05-06T04:42:35.500Z,98493.16
2023-05-06T04:45:09.676Z,98499.88
2023-05-06T04:47:37.870Z,98495.31
2023-05-06T04:50:05.875Z,98496.19
2023-05-06T04:52:32.702Z,98496.41
2023-05-06T04:54:59.542Z,98492.59
2023-05-06T04:57:26.472Z,98494.28
2023-05-06T04:59:54.903Z,98501.00
2023-05-06T05:02:22.172Z,98506.81
2023-05-06T05:04:49.922Z,98503.88
2023-05-06T05:07:16.678Z,98513.34
2023-05-06T05:09:43.347Z,98509.91
2023-05-06T05:12:10.036Z,98513.63
2023-05-06T05:14:41.059Z,98523.06
2023-05-06T05:17:10.044Z,98527.84
2023-05-06T05:19:37.950Z,98519.31
2023-05-06T05:22:04.850Z,98526.91
2023-05-06T05:24:33.051Z,98524.69
2023-05-06T05:26:59.685Z,98543.66
2023-05-06T05:29:26.608Z,98532.63
2023-05-06T05:31:54.210Z,98534.13
2023-05-06T05:34:21.190Z,98536.56
2023-05-06T05:36:49.179Z,98536.81
2023-05-06T05:39:15.986Z,98534.59
2023-05-06T05:41:45.693Z,98535.34
2023-05-06T05:44:12.916Z,98541.09
2023-05-06T05:46:41.351Z,98543.25
2023-05-06T05:49:08.744Z,98546.75
2023-05-06T05:51:35.726Z,98550.25
2023-05-06T05:54:04.748Z,98548.53
2023-05-06T05:56:31.687Z,98547.41
2023-05-06T05:58:58.603Z,98543.91
2023-05-06T06:01:25.680Z,98547.19
2023-05-06T06:03:54.426Z,98542.94
2023-05-06T06:06:22.238Z,98538.19
2023-05-06T06:08:49.866Z,98541.06
2023-05-06T06:11:17.002Z,98540.88
2023-05-06T06:13:44.403Z,98537.97
2023-05-06T06:16:11.399Z,98543.13
2023-05-06T06:18:38.139Z,98543.69
2023-05-06T06:21:04.987Z,98543.47
2023-05-06T06:23:31.662Z,98542.13
2023-05-06T06:25:58.795Z,98548.44
2023-05-06T06:28:26.108Z,98545.66
2023-05-06T06:30:53.311Z,98547.34
2023-05-06T06:33:19.972Z,98548.78
2023-05-06T06:35:46.623Z,98548.25
2023-05-06T06:38:13.275Z,98541.69
2023-05-06T06:40:39.859Z,98545.13
2023-05-06T06:43:06.474Z,98551.28
2023-05-06T06:45:54.866Z,98552.06
2023-05-06T06:48:21.624Z,98547.97
2023-05-06T06:50:48.393Z,98555.22
2023-05-06T06:53:15.032Z,98547.66
2023-05-06T06:55:45.598Z,98550.69
2023-05-06T06:58:12.396Z,98553.13
2023-05-06T07:00:39.123Z,98555.84
2023-05-06T07:03:05.864Z,98560.25
2023-05-06T07:05:32.501Z,98549.22
2023-05-06T07:07:59.243Z,98547.66
2023-05-06T07:10:25.975Z,98541.34
2023-05-06T07:12:52.850Z,98552.66
2023-05-06T07:15:19.502Z,98551.78
2023-05-06T07:17:46.657Z,98558.03
2023-05-06T07:20:13.393Z,98570.31
2023-05-06T07:22:41.322Z,98565.75
2023-05-06T07:25:08.639Z,98557.06
2023-05-06T07:27:35.411Z,98567.38
2023-05-06T07:30:02.288Z,98561.59
2023-05-06T07:32:29.029Z,98563.31
2023-05-06T07:34:55.779Z,98565.09
2023-05-06T07:37:22.493Z,98559.75
2023-05-06T07:39:49.192Z,98562.72
2023-05-06T07:42:15.824Z,98554.66
2023-05-06T07:44:42.560Z,98546.78
2023-05-06T07:47:09.524Z,98552.06
2023-05-06T07:49:36.327Z,98543.44
2023-05-06T07:52:04.065Z,98538.81
2023-05-06T07:54:31.716Z,98539.38
2023-05-06T07:56:58.715Z,98535.19
2023-05-06T07:59:25.445Z,98530.66
2023-05-06T08:01:52.181Z,98534.22
2023-05-06T08:04:18.941Z,98529.25
2023-05-06T08:06:45.828Z,98523.31
2023-05-06T08:09:16.941Z,98517.00
2023-05-06T08:11:46.520Z,98513.84
2023-05-06T08:14:13.190Z,98505.78
2023-05-06T08:16:39.931Z,98510.47
2023-05-06T08:19:06.647Z,98509.78
2023-05-06T08:21:33.245Z,98510.66
2023-05-06T08:23:59.891Z,98526.25
2023-05-06T08:26:26.542Z,98529.69
2023-05-06T08:28:53.176Z,98518.63
2023-05-06T08:31:19.858Z,98519.94
2023-05-06T08:33:46.596Z,98516.03
2023-05-06T08:36:13.292Z,98513.19
2023-05-06T08:38:39.929Z,98499.03
2023-05-06T08:41:09.553Z,98496.66
2023-05-06T08:43:41.996Z,98483.94
2023-05-06T08:46:09.062Z,98469.50
2023-05-06T08:48:37.340Z,98480.97
2023-05-06T08:51:04.262Z,98481.34
2023-05-06T08:53:33.275Z,98468.09
2023-05-06T08:56:06.355Z,98468.22
2023-05-06T08:58:35.085Z,98475.97
2023-05-06T09:01:03.296Z,98474.81
2023-05-06T09:03:30.865Z,98475.28
2023-05-06T09:05:58.193Z,98490.69
2023-05-06T09:08:25.048Z,98500.38
2023-05-06T09:10:51.742Z,98502.22
2023-05-06T09:13:22.288Z,98505.22
2023-05-06T09:15:49.542Z,98510.50
2023-05-06T09:18:16.785Z,98506.91
2023-05-06T09:20:48.899Z,98511.59
2023-05-06T09:23:17.255Z,98508.00
2023-05-06T09:25:46.150Z,98515.03
2023-05-06T09:28:14.291Z,98518.16
2023-05-06T09:30:42.776Z,98521.34
2023-05-06T09:33:10.356Z,98525.75
2023-05-06T09:35:38.122Z,98527.59
2023-05-06T09:38:07.157Z,98524.84
2023-05-06T09:40:38.735Z,98514.16
2023-05-06T09:43:05.745Z,98490.94
2023-05-06T09:45:32.910Z,98479.22
2023-05-06T09:48:00.571Z,98478.22
2023-05-06T09:50:27.622Z,98480.50
2023-05-06T09:52:55.748Z,98473.19
2023-05-06T09:55:23.691Z,98478.31
2023-05-06T09:57:50.735Z,98469.06
2023-05-06T10:00:17.730Z,98479.09
2023-05-06T10:02:45.544Z,98478.00
2023-05-06T10:05:13.268Z,98467.81
2023-05-06T10:07:44.037Z,98456.78
2023-05-06T10:10:14.262Z,98444.31
2023-05-06T10:12:41.060Z,98438.06
2023-05-06T10:15:08.442Z,98446.88
2023-05-06T10:17:38.041Z,98450.91
2023-05-06T10:20:09.120Z,98429.94
2023-05-06T10:23:03.405Z,98412.63
2023-05-06T10:25:42.532Z,98395.31
2023-05-06T10:28:13.353Z,98409.22
2023-05-06T10:30:58.056Z,98412.47
2023-05-06T10:33:26.154Z,98415.00
2023-05-06T10:35:58.575Z,98433.28
2023-05-06T10:38:32.704Z,98436.28
2023-05-06T10:41:00.544Z,98432.97
2023-05-06T10:43:34.464Z,98430.13
2023-05-06T10:46:09.123Z,98422.56
2023-05-06T10:48:59.897Z,98421.09
2023-05-06T10:51:28.466Z,98428.06
2023-05-06T10:54:04.455Z,98419.03
2023-05-06T10:56:51.143Z,98420.19
2023-05-06T10:59:23.904Z,98415.31
2023-05-06T11:01:57.403Z,98408.75
2023-05-06T11:04:24.139Z,98403.88
2023-05-06T11:06:53.015Z,98408.63
2023-05-06T11:09:26.751Z,98412.88
2023-05-06T11:12:04.614Z,98415.38
2023-05-06T11:14:38.777Z,98411.72
2023-05-06T11:17:07.636Z,98411.00
2023-05-06T11:19:36.319Z,98417.34
2023-05-06T11:22:07.222Z,98406.13
2023-05-06T11:24:44.130Z,98423.25
2023-05-06T11:27:11.290Z,98412.13
2023-05-06T11:29:38.053Z,98408.72
2023-05-06T11:32:22.204Z,98399.66
2023-05-06T11:34:49.063Z,98396.44
2023-05-06T11:37:25.806Z,98401.81
2023-05-06T11:39:52.766Z,98387.34
2023-05-06T11:42:26.935Z,98383.75
2023-05-06T11:44:55.371Z,98386.16
2023-05-06T11:47:23.473Z,98388.38
2023-05-06T11:49:53.396Z,98381.97
2023-05-06T11:52:23.375Z,98377.25
2023-05-06T11:54:53.532Z,98366.09
2023-05-06T11:57:20.752Z,98370.78
2023-05-06T11:59:53.303Z,98372.84
2023-05-06T12:02:20.529Z,98376.41
2023-05-06T12:04:49.906Z,98384.31
2023-05-06T12:07:17.225Z,98383.81
2023-05-06T12:09:49.745Z,98375.88
2023-05-06T12:12:19.943Z,98381.16
2023-05-06T12:14:49.260Z,98380.44
2023-05-06T12:17:16.569Z,98374.25
2023-05-06T12:19:43.276Z,98379.00
2023-05-06T12:22:24.640Z,98377.72
2023-05-06T12:24:51.515Z,98379.03
2023-05-06T12:27:30.963Z,98382.88
2023-05-06T12:29:57.588Z,98378.47
2023-05-06T12:32:24.281Z,98375.91
2023-05-06T12:34:50.931Z,98378.50
2023-05-06T12:37:28.527Z,98372.81
2023-05-06T12:39:58.486Z,98379.28
2023-05-06T12:42:26.332Z,98375.03
2023-05-06T12:44:52.987Z,98373.41
2023-05-06T12:47:26.777Z,98376.38
2023-05-06T12:49:55.796Z,98372.84
2023-05-06T12:52:24.153Z,98369.94
2023-05-06T12:54:54.787Z,98368.59
2023-05-06T12:57:22.172Z,98373.09
2023-05-06T12:59:50.216Z,98358.56
2023-05-06T13:02:17.092Z,98358.03
2023-05-06T13:04:45.253Z,98359.44
2023-05-06T13:07:12.064Z,98360.03
2023-05-06T13:09:38.759Z,98356.72
2023-05-06T13:12:06.429Z,98352.63
2023-05-06T13:14:33.072Z,98353.00
2023-05-06T13:17:00.995Z,98354.28
2023-05-06T13:19:32.955Z,98341.44
2023-05-06T13:22:01.298Z,98339.06
2023-05-06T13:24:28.779Z,98339.09
2023-05-06T13:26:56.831Z,98341.84
2023-05-06T13:29:23.746Z,98338.56
2023-05-06T13:31:50.975Z,98338.94
2023-05-06T13:34:17.872Z,98339.56
2023-05-06T13:36:44.565Z,98329.47
2023-05-06T13:39:11.251Z,98330.97
2023-05-06T13:41:37.958Z,98326.25
2023-05-06T13:44:04.966Z,98319.91
2023-05-06T13:46:31.755Z,98307.34
2023-05-06T13:48:58.454Z,98310.72
2023-05-06T13:51:29.841Z,98306.72
2023-05-06T13:53:56.467Z,98302.31
2023-05-06T13:56:23.139Z,98301.25
2023-05-06T13:58:49.839Z,98292.19
2023-05-06T14:01:16.587Z,98300.56
2023-05-06T14:03:43.263Z,98299.88
2023-05-06T14:06:09.890Z,98298.50
2023-05-06T14:08:36.507Z,98297.56
2023-05-06T14:11:03.202Z,98297.78
2023-05-06T14:13:32.335Z,98287.72
2023-05-06T14:15:59.838Z,98282.53
2023-05-06T14:18:27.294Z,98287.66
2023-05-06T14:20:54.470Z,98289.13
2023-05-06T14:23:21.078Z,98279.03
2023-05-06T14:25:48.175Z,98287.16
2023-05-06T14:28:15.597Z,98277.69
2023-05-06T14:30:42.529Z,98286.72
2023-05-06T14:33:10.028Z,98285.75
2023-05-06T14:35:41.273Z,98280.28
2023-05-06T14:38:08.272Z,98281.59
2023-05-06T14:40:36.784Z,98267.66
2023-05-06T14:43:03.568Z,98258.94
2023-05-06T14:45:30.587Z,98264.81
2023-05-06T14:47:57.569Z,98263.56
2023-05-06T14:50:24.315Z,98262.09
2023-05-06T14:52:51.030Z,98264.31
2023-05-06T14:55:18.134Z,98261.78
2023-05-06T14:57:44.737Z,98263.44
2023-05-06T15:00:12.660Z,98266.88
2023-05-06T15:02:40.779Z,98259.66
2023-05-06T15:05:09.759Z,98256.25
2023-05-06T15:07:36.656Z,98268.13
2023-05-06T15:10:04.135Z,98263.16
2023-05-06T15:12:31.702Z,98256.94
2023-05-06T15:14:58.417Z,98252.56
2023-05-06T15:17:25.252Z,98256.53
2023-05-06T15:19:52.098Z,98258.34
2023-05-06T15:22:18.773Z,98253.75
2023-05-06T15:24:45.467Z,98248.13
2023-05-06T15:27:12.130Z,98252.72
2023-05-06T15:29:39.388Z,98253.72
2023-05-06T15:32:06.949Z,98249.63
2023-05-06T15:34:33.678Z,98251.59
2023-05-06T15:37:03.339Z,98262.97
2023-05-06T15:39:37.142Z,98260.53
2023-05-06T15:42:04.175Z,98258.16
2023-05-06T15:44:32.357Z,98263.97
2023-05-06T15:46:59.098Z,98265.28
2023-05-06T15:49:49.288Z,98261.44
2023-05-06T15:52:12.406Z,98252.19
2023-05-06T15:54:39.986Z,98258.66
2023-05-06T15:57:07.939Z,98255.34
2023-05-06T15:59:34.603Z,98256.44
2023-05-06T16:02:26.193Z,98244.28
2023-05-06T16:04:48.147Z,98247.47
2023-05-06T16:07:15.555Z,98244.75
2023-05-06T16:09:42.786Z,98240.00
2023-05-06T16:12:10.048Z,98237.25
2023-05-06T16:14:36.814Z,98236.38
2023-05-06T16:17:03.533Z,98230.66
2023-05-06T16:19:32.024Z,98236.03
2023-05-06T16:21:58.795Z,98232.66
2023-05-06T16:24:25.494Z,98231.31
2023-05-06T16:26:52.263Z,98228.56
2023-05-06T16:29:20.530Z,98238.47
2023-05-06T16:31:48.378Z,98237.59
2023-05-06T16:34:15.312Z,98235.03
2023-05-06T16:36:42.042Z,98231.09
2023-05-06T16:39:08.673Z,98231.91
2023-05-06T16:41:35.383Z,98227.00
2023-05-06T16:44:02.006Z,98235.91
2023-05-06T16:46:28.950Z,98224.97
2023-05-06T16:48:55.831Z,98232.59
2023-05-06T16:51:22.756Z,98237.63
2023-05-06T16:53:49.519Z,98235.66
2023-05-06T16:56:16.126Z,98230.72
2023-05-06T16:58:42.963Z,98235.84
2023-05-06T17:01:09.930Z,98234.41
2023-05-06T17:03:40.308Z,98234.19
2023-05-06T17:06:07.900Z,98229.31
2023-05-06T17:08:36.470Z,98232.00
2023-05-06T17:11:06.680Z,98229.03
2023-05-06T17:13:33.952Z,98224.38
2023-05-06T17:16:00.840Z,98231.13
2023-05-06T17:18:27.572Z,98224.47
2023-05-06T17:20:56.602Z,98227.69
2023-05-06T17:23:24.422Z,98226.19
2023-05-06T17:25:51.507Z,98229.66
2023-05-06T17:28:18.831Z,98244.28
2023-05-06T17:30:46.139Z,98233.81
2023-05-06T17:33:12.957Z,98227.53
2023-05-06T17:35:39.689Z,98227.78
2023-05-06T17:38:06.445Z,98227.53
2023-05-06T17:40:33.213Z,98230.13
2023-05-06T17:43:00.538Z,98225.81
2023-05-06T17:45:28.323Z,98232.69
2023-05-06T17:47:56.396Z,98231.09
2023-05-06T17:50:23.294Z,98225.81
2023-05-06T17:52:52.176Z,98232.69
2023-05-06T17:55:21.343Z,98232.16
2023-05-06T17:57:48.388Z,98229.81
2023-05-06T18:00:16.584Z,98233.13
2023-05-06T18:02:43.950Z,98232.59
2023-05-06T18:05:11.359Z,98234.78
2023-05-06T18:07:38.504Z,98232.66
2023-05-06T18:10:06.089Z,98243.41
2023-05-06T18:12:32.718Z,98250.25
2023-05-06T18:15:00.250Z,98248.75
2023-05-06T18:17:26.920Z,98256.16
2023-05-06T18:19:53.658Z,98260.03
2023-05-06T18:22:20.344Z,98267.41
2023-05-06T18:24:47.110Z,98272.53
2023-05-06T18:27:13.733Z,98273.19
2023-05-06T18:29:41.286Z,98281.25
2023-05-06T18:32:08.186Z,98277.53
2023-05-06T18:34:35.293Z,98283.13
2023-05-06T18:37:01.961Z,98286.25
2023-05-06T18:39:28.713Z,98285.16
2023-05-06T18:41:55.537Z,98281.59
2023-05-06T18:44:22.189Z,98273.53
2023-05-06T18:46:48.919Z,98281.38
2023-05-06T18:49:15.698Z,98276.59
2023-05-06T18:51:42.441Z,98275.50
2023-05-06T18:54:09.143Z,98284.59
2023-05-06T18:56:36.910Z,98291.00
2023-05-06T18:59:03.624Z,98292.59
2023-05-06T19:01:30.389Z,98300.13
2023-05-06T19:03:57.462Z,98299.63
2023-05-06T19:06:24.114Z,98303.91
2023-05-06T19:08:50.767Z,98307.25
2023-05-06T19:11:21.163Z,98319.91
2023-05-06T19:13:49.831Z,98317.19
2023-05-06T19:16:16.581Z,98327.28
2023-05-06T19:18:43.413Z,98325.00
2023-05-06T19:21:11.064Z,98318.66
2023-05-06T19:23:37.849Z,98324.63
2023-05-06T19:26:06.662Z,98330.09
2023-05-06T19:28:34.223Z,98327.78
2023-05-06T19:31:01.451Z,98330.56
2023-05-06T19:33:28.372Z,98328.47
2023-05-06T19:35:54.974Z,98328.22
2023-05-06T19:38:21.626Z,98330.78
2023-05-06T19:40:48.283Z,98334.81
2023-05-06T19:43:14.982Z,98333.59
2023-05-06T19:45:41.954Z,98331.44
2023-05-06T19:48:08.875Z,98342.47
2023-05-06T19:50:36.560Z,98335.03
2023-05-06T19:53:03.335Z,98339.25
2023-05-06T19:55:30.808Z,98333.78
2023-05-06T19:57:57.751Z,98334.63
2023-05-06T20:00:27.134Z,98327.66
2023-05-06T20:02:56.345Z,98328.72
2023-05-06T20:05:23.496Z,98334.44
2023-05-06T20:07:50.902Z,98328.03
2023-05-06T20:10:17.645Z,98324.38
2023-05-06T20:12:44.271Z,98325.06
2023-05-06T20:15:11.540Z,98324.69
2023-05-06T20:17:38.788Z,98329.38
2023-05-06T20:20:09.741Z,98336.66
2023-05-06T20:22:37.803Z,98330.41
2023-05-06T20:25:13.024Z,98330.63
2023-05-06T20:27:39.974Z,98341.47
2023-05-06T20:30:08.057Z,98337.25
2023-05-06T20:32:35.293Z,98332.63
2023-05-06T20:35:02.225Z,98344.63
2023-05-06T20:37:29.347Z,98332.34
2023-05-06T20:39:56.432Z,98343.91
2023-05-06T20:42:23.380Z,98341.06
2023-05-06T20:44:53.301Z,98349.47
2023-05-06T20:47:20.111Z,98341.06
2023-05-06T20:49:46.847Z,98343.97
2023-05-06T20:52:14.598Z,98343.78
2023-05-06T20:54:45.289Z,98342.22
2023-05-06T20:57:13.996Z,98343.97
2023-05-06T20:59:41.026Z,98339.84
2023-05-06T21:02:07.877Z,98330.34
2023-05-06T21:04:34.640Z,98337.16
2023-05-06T21:07:01.393Z,98340.19
2023-05-06T21:09:28.867Z,98331.38
2023-05-06T21:11:56.043Z,98344.28
2023-05-06T21:14:24.757Z,98331.16
2023-05-06T21:16:52.177Z,98330.09
2023-05-06T21:19:19.467Z,98325.69
2023-05-06T21:21:46.169Z,98332.19
2023-05-06T21:24:13.063Z,98336.47
2023-05-06T21:26:39.922Z,98336.47
2023-05-06T21:29:06.620Z,98338.09
2023-05-06T21:31:33.552Z,98334.53
2023-05-06T21:34:00.392Z,98336.19
2023-05-06T21:36:27.170Z,98328.41
2023-05-06T21:39:08.485Z,98321.25
2023-05-06T21:41:36.086Z,98321.06
2023-05-06T21:44:07.032Z,98317.13
2023-05-06T21:46:34.964Z,98317.78
2023-05-06T21:49:01.878Z,98324.97
2023-05-06T21:51:32.229Z,98317.00
2023-05-06T21:53:59.217Z,98313.69
2023-05-06T21:56:25.865Z,98314.69
2023-05-06T21:58:55.588Z,98316.75
2023-05-06T22:01:23.296Z,98320.56
2023-05-06T22:03:50.123Z,98326.47
2023-05-06T22:06:16.843Z,98324.91
2023-05-06T22:08:43.648Z,98324.22
2023-05-06T22:11:10.905Z,98317.75
2023-05-06T22:13:37.581Z,98312.75
2023-05-06T22:16:04.532Z,98321.97
2023-05-06T22:18:32.064Z,98315.06
2023-05-06T22:20:59.707Z,98314.63
2023-05-06T22:23:27.984Z,98329.06
2023-05-06T22:25:54.662Z,98318.97
2023-05-06T22:28:21.645Z,98320.56
2023-05-06T22:30:48.388Z,98316.09
2023-05-06T22:33:15.076Z,98319.56
2023-05-06T22:35:41.782Z,98323.69
2023-05-06T22:38:08.495Z,98328.13
2023-05-06T22:40:35.493Z,98322.94
2023-05-06T22:43:03.215Z,98325.63
2023-05-06T22:45:29.926Z,98319.75
2023-05-06T22:47:56.840Z,98319.34
2023-05-06T22:50:24.874Z,98324.00
2023-05-06T22:52:51.562Z,98325.69
2023-05-06T22:55:18.235Z,98329.47
2023-05-06T22:57:45.181Z,98315.69
2023-05-06T23:00:12.866Z,98321.75
2023-05-06T23:02:39.800Z,98313.00
2023-05-06T23:05:06.669Z,98319.75
2023-05-06T23:07:33.324Z,98312.59
2023-05-06T23:10:00.547Z,98307.38
2023-05-06T23:12:28.043Z,98311.25
2023-05-06T23:14:54.677Z,98301.84
2023-05-06T23:17:21.360Z,98300.97
2023-05-06T23:19:47.964Z,98299.88
2023-05-06T23:22:14.699Z,98291.78
2023-05-06T23:24:42.225Z,98301.44
2023-05-06T23:27:08.982Z,98298.94
2023-05-06T23:29:36.021Z,98302.19
2023-05-06T23:32:02.851Z,98299.75
2023-05-06T23:34:29.498Z,98298.72
2023-05-06T23:36:56.550Z,98296.97
2023-05-06T23:39:23.347Z,98295.44
2023-05-06T23:41:50.097Z,98295.59
2023-05-06T23:44:16.800Z,98305.81
2023-05-06T23:46:43.462Z,98305.59
2023-05-06T23:49:10.179Z,98303.31
2023-05-06T23:51:36.868Z,98292.31
2023-05-06T23:54:03.552Z,98295.13
2023-05-06T23:56:30.208Z,98290.81
2023-05-06T23:58:56.917Z,98301.81
